ETNH

Details ICAO ETNH
Name HOHN
Region Germany - Military
Timezone Europe/Berlin (UTC+2.0)
Plans Departing 8
Arriving 2
Stats Elevation 39 ft / 12 m (AMSL)
Location 54.312165° 9.538168°
Runways 1
Magnetic Variation 2.712° E
Sunrise 2018-05-27 03:01:43 UTC / 2018-05-27 05:01:43 Local
Sunset 2018-05-27 19:39:09 UTC / 2018-05-27 21:39:09 Local
Advertisement - Login to hide

Runways

ID Width Length Bearing (true) Bearing (mag) Surface Threshold Offset Overrun Length
08 98 ft / 30 m 7,981 ft / 2,433 m 79.38° 76.67° Concrete 0 ft / 0 m 902 ft / 275 m
26 98 ft / 30 m 7,981 ft / 2,433 m 259.41° 256.70° Concrete 0 ft / 0 m 902 ft / 275 m

Approach Navaids

Runway Type Ident Frequency Range Bearing (true) Bearing (mag) Slope Elevation
26 Localiser HN 108.90 MHz 18 nm / 33 km 259.56° 256.85° - 28 ft / 9 m (AMSL)
26 Glidescope HN 108.90 MHz 10 nm / 19 km 259.40° 256.68° 3.00° 62 ft / 19 m (AMSL)

Map

Weather


0- 5 10 15 20 25 30 35+ Temperature / ° C

Clouds and Precipitation
Forecast for 2018-05-27 18:00 UTC. Updated 3 hours ago

Ground ~20,000 ft ~40,000 ft Winds

METAR

ETNH 271920Z 08012KT 9999 BKN004 15/13 Q1021 YLO

TAF

Not found

Frequencies

Tower 122.10 MHz TWR
Approach 123.30 MHz RADAR
Warning: Do not use this data for real-world aviation or navigation. No guarantee of current accuracy is given.